Time;durP1;ratioP1;P1;durP2;ratioP2;P2;SDS_P1;SDS_P2;PMS_P1;PMS_P2;Temp;Humidity;BMP_temperature;BMP_pressure;BME280_temperature;BME280_humidity;BME280_pressure;Samples;Min_cycle;Max_cycle;Signal;HPM_P1;HPM_P2
2022/01/31 00:07:45;;;;;;;20.63;4.87;;;5.60;74.90;;;;;;20978488;28;20251;-62
2022/01/31 00:17:46;;;;;;;20.40;4.13;;;5.50;75.90;;;;;;20984062;28;20284;-64
2022/01/31 00:27:48;;;;;;;18.30;4.23;;;5.70;75.90;;;;;;20927910;28;20216;-64
2022/01/31 00:37:50;;;;;;;19.03;4.20;;;5.70;75.40;;;;;;20921229;28;20533;-62
2022/01/31 00:48:03;;;;;;;18.20;3.63;;;5.80;75.20;;;;;;20920033;28;20639;-63
2022/01/31 00:58:05;;;;;;;17.43;4.40;;;5.70;75.50;;;;;;20920447;28;20212;-65
2022/01/31 01:08:07;;;;;;;17.20;4.03;;;5.80;75.70;;;;;;20919374;28;20711;-64
2022/01/31 01:18:09;;;;;;;15.93;3.67;;;5.80;76.30;;;;;;20908106;28;20262;-62
2022/01/31 01:28:10;;;;;;;14.37;3.80;;;5.90;76.60;;;;;;20917005;28;20708;-64
2022/01/31 01:38:15;;;;;;;16.40;3.77;;;5.90;76.80;;;;;;20917420;28;20204;-63
2022/01/31 01:48:17;;;;;;;10.57;3.50;;;5.90;77.00;;;;;;20917518;28;20231;-64
2022/01/31 01:58:21;;;;;;;13.57;3.50;;;5.80;77.50;;;;;;20917226;28;20258;-63
2022/01/31 02:08:25;;;;;;;11.90;3.63;;;5.70;78.30;;;;;;20915627;28;20711;-63
2022/01/31 02:18:29;;;;;;;14.07;3.87;;;5.80;78.80;;;;;;20915365;28;20209;-62
2022/01/31 02:28:33;;;;;;;10.40;3.63;;;5.80;79.00;;;;;;20914813;28;20232;-64
2022/01/31 02:38:34;;;;;;;15.03;3.87;;;5.80;79.40;;;;;;20913941;28;20205;-64
2022/01/31 02:48:36;;;;;;;11.60;4.00;;;5.70;80.00;;;;;;20912853;28;20638;-64
2022/01/31 02:58:38;;;;;;;14.70;4.30;;;5.70;80.10;;;;;;20911814;28;20660;-65
2022/01/31 03:08:40;;;;;;;11.17;3.83;;;5.80;80.50;;;;;;20912004;28;20711;-62
2022/01/31 03:18:41;;;;;;;16.93;4.70;;;5.70;80.70;;;;;;20901783;28;20234;-64
2022/01/31 03:28:44;;;;;;;11.77;4.23;;;5.60;80.90;;;;;;20910042;28;20691;-65
2022/01/31 03:38:46;;;;;;;16.67;5.30;;;5.50;81.40;;;;;;20911508;28;20216;-66
2022/01/31 03:48:49;;;;;;;13.47;4.43;;;5.50;81.90;;;;;;20910662;28;20233;-63
2022/01/31 03:58:50;;;;;;;20.47;4.43;;;5.60;82.60;;;;;;20917859;28;20200;-64
2022/01/31 04:08:52;;;;;;;12.67;4.57;;;5.60;82.20;;;;;;20925173;28;20239;-65
2022/01/31 04:18:54;;;;;;;11.73;4.87;;;5.50;82.60;;;;;;20924806;28;20258;-64
2022/01/31 04:29:04;;;;;;;21.40;5.33;;;5.60;83.70;;;;;;20924375;28;20231;-63
2022/01/31 04:39:05;;;;;;;23.40;5.20;;;5.60;83.50;;;;;;20923060;28;20541;-63
2022/01/31 04:49:08;;;;;;;15.73;5.17;;;5.60;83.90;;;;;;20922097;28;20295;-63
2022/01/31 04:59:10;;;;;;;15.10;5.40;;;5.50;84.10;;;;;;20921857;28;20249;-63
2022/01/31 05:09:12;;;;;;;15.00;5.30;;;5.50;84.70;;;;;;20920305;28;20245;-63
2022/01/31 05:19:14;;;;;;;13.40;5.43;;;5.60;85.20;;;;;;20907824;28;20261;-63
2022/01/31 05:29:17;;;;;;;17.30;5.50;;;5.50;85.70;;;;;;20916944;28;20240;-63
2022/01/31 05:39:21;;;;;;;18.27;5.53;;;5.60;86.20;;;;;;20917735;28;20200;-63
2022/01/31 05:49:23;;;;;;;23.90;6.97;;;5.60;86.90;;;;;;20916569;28;20266;-64
2022/01/31 05:59:25;;;;;;;16.67;5.90;;;5.50;88.20;;;;;;20916914;28;20205;-64
2022/01/31 06:09:28;;;;;;;14.93;6.87;;;5.40;90.00;;;;;;20915351;28;20237;-62
2022/01/31 06:19:30;;;;;;;14.07;6.67;;;5.20;90.60;;;;;;20920999;28;20644;-64
2022/01/31 06:29:31;;;;;;;20.30;6.63;;;5.10;91.20;;;;;;20929116;28;20236;-64
2022/01/31 06:39:33;;;;;;;10.80;5.63;;;5.00;91.80;;;;;;20920038;28;20290;-63
2022/01/31 06:49:35;;;;;;;11.63;5.13;;;4.80;92.40;;;;;;20913482;28;20690;-64
2022/01/31 06:59:36;;;;;;;8.50;4.57;;;4.80;93.40;;;;;;20911490;28;20220;-63
2022/01/31 07:09:39;;;;;;;8.47;4.40;;;4.80;93.60;;;;;;20907853;28;20255;-64
2022/01/31 07:19:42;;;;;;;6.70;3.40;;;4.80;94.20;;;;;;20898084;28;20619;-63
2022/01/31 07:29:45;;;;;;;5.43;3.30;;;4.80;94.40;;;;;;20910456;28;20699;-62
2022/01/31 07:39:47;;;;;;;4.07;2.40;;;4.80;94.70;;;;;;20927250;28;20658;-63
2022/01/31 07:49:51;;;;;;;4.07;2.20;;;4.80;95.20;;;;;;20926866;28;20763;-62
2022/01/31 07:59:53;;;;;;;2.87;1.93;;;4.90;95.40;;;;;;20930871;28;20258;-63
2022/01/31 08:09:55;;;;;;;6.83;2.40;;;5.00;95.50;;;;;;20925409;28;20646;-64
2022/01/31 08:19:57;;;;;;;3.70;1.83;;;5.20;95.80;;;;;;20924598;28;20236;-62
2022/01/31 08:30:07;;;;;;;6.83;1.97;;;5.50;95.80;;;;;;20921854;28;20235;-64
2022/01/31 08:40:09;;;;;;;3.83;2.10;;;5.60;95.70;;;;;;20923136;28;20688;-63
2022/01/31 08:50:11;;;;;;;3.57;1.70;;;5.80;95.60;;;;;;20922580;28;20686;-64
2022/01/31 09:00:13;;;;;;;17.50;9.33;;;5.80;95.30;;;;;;20920380;28;20207;-63
2022/01/31 09:10:15;;;;;;;3.57;2.20;;;5.80;95.30;;;;;;20919839;28;20232;-65
2022/01/31 09:20:18;;;;;;;3.47;2.00;;;6.00;95.20;;;;;;20907713;28;20210;-63
2022/01/31 09:30:22;;;;;;;3.70;1.90;;;6.10;94.90;;;;;;20912799;28;20263;-65
2022/01/31 09:40:24;;;;;;;4.57;1.90;;;6.30;94.50;;;;;;20917079;28;20283;-65
2022/01/31 09:50:27;;;;;;;3.77;1.83;;;6.30;94.40;;;;;;20914822;28;20306;-64
2022/01/31 10:00:33;;;;;;;4.43;1.90;;;6.60;94.40;;;;;;20910872;28;20216;-64
2022/01/31 10:10:40;;;;;;;4.47;2.17;;;6.60;94.70;;;;;;20909224;28;20251;-65
2022/01/31 10:20:42;;;;;;;5.70;1.90;;;6.60;94.30;;;;;;20912008;28;20205;-63
2022/01/31 10:30:46;;;;;;;2.53;1.60;;;6.60;94.20;;;;;;20913238;28;20265;-66
2022/01/31 10:51:53;;;;;;;2.53;1.40;;;6.70;93.70;;;;;;20912313;28;20716;-63
2022/01/31 11:01:51;;;;;;;2.83;1.50;;;6.80;93.80;;;;;;20911720;28;20600;-63
2022/01/31 11:12:05;;;;;;;5.30;1.60;;;6.80;94.00;;;;;;20911953;28;20772;-65
2022/01/31 11:22:31;;;;;;;4.63;1.87;;;7.00;93.40;;;;;;20967731;28;20585;-64
2022/01/31 11:32:49;;;;;;;2.10;1.30;;;6.90;93.70;;;;;;20897973;28;20230;-63
2022/01/31 11:42:51;;;;;;;2.80;1.50;;;6.90;93.80;;;;;;20899553;28;20263;-63
2022/01/31 11:53:03;;;;;;;2.37;1.40;;;6.90;94.10;;;;;;20898368;28;20256;-66
2022/01/31 12:03:07;;;;;;;4.13;1.70;;;6.80;94.00;;;;;;20896937;28;20271;-63
2022/01/31 12:13:38;;;;;;;4.07;1.70;;;6.50;95.00;;;;;;20895615;28;20247;-63
2022/01/31 12:23:41;;;;;;;4.93;1.33;;;6.50;95.50;;;;;;20907135;28;20244;-63
2022/01/31 12:33:42;;;;;;;3.27;1.53;;;6.30;96.00;;;;;;20844957;28;20264;-66
2022/01/31 12:53:48;;;;;;;2.77;1.40;;;6.10;96.80;;;;;;20839508;28;20287;-64
2022/01/31 13:03:57;;;;;;;1.77;1.47;;;6.00;97.20;;;;;;20839890;28;20205;-63
2022/01/31 13:14:09;;;;;;;0.90;0.83;;;5.90;97.50;;;;;;20832943;28;20242;-62
2022/01/31 13:24:34;;;;;;;0.80;0.80;;;6.00;97.60;;;;;;20834276;28;20255;-64
2022/01/31 13:34:40;;;;;;;1.10;1.00;;;6.00;97.60;;;;;;20833182;28;20668;-63
2022/01/31 13:44:43;;;;;;;2.80;1.10;;;6.00;97.40;;;;;;20833637;28;20570;-63
2022/01/31 13:54:45;;;;;;;1.77;1.00;;;6.00;97.70;;;;;;20834154;28;20291;-63
2022/01/31 14:04:47;;;;;;;2.13;0.90;;;6.00;97.60;;;;;;20833023;28;20213;-63
2022/01/31 14:14:49;;;;;;;1.97;1.00;;;5.80;97.70;;;;;;20831734;28;20608;-64
2022/01/31 14:24:53;;;;;;;2.60;0.90;;;5.80;97.90;;;;;;20831892;28;20213;-65
2022/01/31 14:34:58;;;;;;;2.13;1.00;;;5.80;97.70;;;;;;20830883;28;20256;-63
2022/01/31 14:55:26;;;;;;;1.50;1.00;;;6.00;97.90;;;;;;20829925;28;20238;-62
2022/01/31 15:05:28;;;;;;;1.80;1.00;;;6.00;98.10;;;;;;20828826;28;20237;-62
2022/01/31 15:15:30;;;;;;;1.47;1.10;;;6.00;98.00;;;;;;20826033;28;20290;-63
2022/01/31 15:25:33;;;;;;;1.33;1.03;;;5.80;98.10;;;;;;20824910;28;20251;-64
2022/01/31 15:35:35;;;;;;;1.37;1.00;;;5.90;98.10;;;;;;20824308;28;20243;-62
2022/01/31 15:45:37;;;;;;;1.60;1.20;;;6.00;98.10;;;;;;20826729;28;20209;-65
2022/01/31 15:55:39;;;;;;;2.17;1.20;;;6.10;98.40;;;;;;20827180;28;20240;-62
2022/01/31 16:05:45;;;;;;;2.03;1.20;;;6.10;97.80;;;;;;20835848;28;20206;-62
2022/01/31 16:15:52;;;;;;;2.90;1.30;;;6.00;97.90;;;;;;20838798;28;20236;-63
2022/01/31 16:25:55;;;;;;;1.67;1.30;;;5.90;98.00;;;;;;20837532;28;20240;-64
2022/01/31 16:35:57;;;;;;;2.50;1.47;;;5.90;98.00;;;;;;20840317;28;20637;-62
2022/01/31 16:45:59;;;;;;;2.40;1.60;;;6.00;97.90;;;;;;20839851;28;20652;-63
2022/01/31 16:56:00;;;;;;;3.90;1.57;;;6.00;98.00;;;;;;20844112;28;20621;-60
2022/01/31 17:06:22;;;;;;;2.93;1.70;;;6.00;98.10;;;;;;20840018;28;20606;-61
2022/01/31 17:20:30;;;;;;;2.70;1.77;;;6.10;98.10;;;;;;20984218;28;20570;-64
2022/01/31 17:30:32;;;;;;;2.27;1.60;;;6.20;98.00;;;;;;20916539;28;20212;-63
2022/01/31 17:40:34;;;;;;;3.27;1.50;;;6.10;97.80;;;;;;20906985;28;20216;-64
2022/01/31 17:50:36;;;;;;;2.77;1.70;;;6.10;97.80;;;;;;20945300;28;20725;-63
2022/01/31 18:00:37;;;;;;;4.17;1.60;;;6.10;97.60;;;;;;20931920;28;20225;-64
2022/01/31 18:10:39;;;;;;;2.03;1.53;;;6.10;97.60;;;;;;20979896;28;20610;-63
2022/01/31 18:20:41;;;;;;;2.03;1.70;;;6.10;97.60;;;;;;20922666;28;20243;-63
2022/01/31 18:30:43;;;;;;;2.30;1.53;;;6.10;97.40;;;;;;20861971;28;20208;-63
2022/01/31 18:40:45;;;;;;;2.97;1.63;;;6.00;97.60;;;;;;20845937;28;20628;-63
2022/01/31 18:50:49;;;;;;;1.93;1.73;;;5.90;97.70;;;;;;20854709;28;20204;-65
2022/01/31 19:00:51;;;;;;;2.17;1.90;;;6.00;97.90;;;;;;20922612;28;20222;-65
2022/01/31 19:20:57;;;;;;;2.60;2.10;;;6.10;98.00;;;;;;20879776;28;20270;-64
2022/01/31 19:30:59;;;;;;;2.77;1.93;;;6.10;97.80;;;;;;20918490;28;20262;-65
2022/01/31 19:51:27;;;;;;;4.33;2.40;;;6.20;97.70;;;;;;20915077;28;20722;-62
2022/01/31 20:01:30;;;;;;;2.57;2.00;;;6.30;97.60;;;;;;20916766;28;20287;-62
2022/01/31 20:11:32;;;;;;;2.30;2.10;;;6.30;97.50;;;;;;20915887;28;20237;-64
2022/01/31 20:21:34;;;;;;;3.30;2.27;;;6.30;97.40;;;;;;20914037;28;20237;-66
2022/01/31 20:31:37;;;;;;;8.20;4.90;;;6.40;97.30;;;;;;20914461;28;20759;-65
2022/01/31 20:41:40;;;;;;;2.87;2.03;;;6.40;97.50;;;;;;20914066;28;20258;-65
2022/01/31 20:51:42;;;;;;;2.87;2.30;;;6.20;97.10;;;;;;20912761;28;20237;-65
2022/01/31 21:01:43;;;;;;;2.10;1.60;;;6.10;97.30;;;;;;20913302;28;20217;-64
2022/01/31 21:11:48;;;;;;;1.63;1.53;;;6.00;97.40;;;;;;20912348;28;20576;-69
2022/01/31 21:21:50;;;;;;;1.63;1.50;;;6.00;97.70;;;;;;20895708;28;20303;-68
2022/01/31 21:31:52;;;;;;;2.40;1.60;;;5.90;98.00;;;;;;20878494;28;20259;-64
2022/01/31 21:41:54;;;;;;;1.93;1.70;;;5.80;98.30;;;;;;20852600;28;20224;-64
2022/01/31 21:52:00;;;;;;;2.33;1.50;;;5.90;98.40;;;;;;20823605;28;20731;-65
2022/01/31 22:02:03;;;;;;;1.60;1.50;;;6.00;98.30;;;;;;20833362;28;20784;-64
2022/01/31 22:12:05;;;;;;;2.17;1.40;;;6.00;98.30;;;;;;20840962;28;20244;-66
2022/01/31 22:22:07;;;;;;;1.73;1.63;;;6.00;98.10;;;;;;20840348;28;20212;-64
2022/01/31 22:32:09;;;;;;;2.47;1.67;;;5.90;98.00;;;;;;20839299;28;20236;-64
2022/01/31 22:42:14;;;;;;;3.17;1.90;;;5.90;97.40;;;;;;20838663;28;20213;-63
2022/01/31 22:52:16;;;;;;;3.03;2.30;;;6.00;97.30;;;;;;20837307;28;20290;-64
2022/01/31 23:02:18;;;;;;;4.00;2.73;;;6.00;97.30;;;;;;20836896;28;20205;-63
2022/01/31 23:12:23;;;;;;;3.37;2.80;;;6.00;97.40;;;;;;20836148;28;20236;-65
